createdAt,value
2023-05-23T00:02:16.836Z,20.00
2023-05-23T00:04:44.378Z,19.27
2023-05-23T00:07:11.691Z,18.55
2023-05-23T00:09:38.969Z,16.40
2023-05-23T00:12:07.118Z,15.98
2023-05-23T00:14:35.543Z,15.57
2023-05-23T00:17:03.010Z,15.65
2023-05-23T00:19:30.450Z,16.80
2023-05-23T00:21:58.686Z,15.60
2023-05-23T00:24:27.247Z,15.52
2023-05-23T00:26:54.383Z,15.60
2023-05-23T00:29:21.585Z,14.30
2023-05-23T00:31:49.190Z,13.88
2023-05-23T00:34:20.366Z,13.55
2023-05-23T00:36:48.168Z,12.43
2023-05-23T00:39:20.075Z,13.13
2023-05-23T00:41:51.869Z,13.70
2023-05-23T00:44:20.310Z,15.35
2023-05-23T00:46:53.069Z,15.48
2023-05-23T00:49:20.804Z,15.70
2023-05-23T00:51:49.912Z,17.00
2023-05-23T00:54:31.249Z,17.15
2023-05-23T00:56:59.451Z,17.63
2023-05-23T00:59:27.221Z,16.85
2023-05-23T01:01:57.108Z,17.30
2023-05-23T01:04:26.558Z,16.98
2023-05-23T01:06:56.098Z,17.27
2023-05-23T01:09:25.839Z,15.85
2023-05-23T01:12:21.057Z,16.48
2023-05-23T01:15:11.282Z,15.93
2023-05-23T01:18:13.007Z,15.45
2023-05-23T01:21:20.751Z,15.85
2023-05-23T01:24:10.495Z,16.60
2023-05-23T01:26:58.803Z,16.80
2023-05-23T01:29:47.129Z,16.42
2023-05-23T01:32:16.571Z,16.20
2023-05-23T01:34:44.298Z,16.30
2023-05-23T01:37:14.734Z,16.48
2023-05-23T01:39:42.634Z,16.60
2023-05-23T01:42:10.060Z,16.80
2023-05-23T01:44:38.529Z,15.63
2023-05-23T01:47:08.774Z,14.85
2023-05-23T01:49:37.602Z,14.25
2023-05-23T01:52:06.059Z,14.30
2023-05-23T01:54:35.580Z,13.20
2023-05-23T01:57:03.329Z,13.35
2023-05-23T01:59:30.687Z,12.85
2023-05-23T02:01:58.527Z,12.63
2023-05-23T02:04:25.775Z,12.10
2023-05-23T02:06:52.905Z,11.05
2023-05-23T02:09:20.020Z,11.18
2023-05-23T02:11:47.187Z,11.75
2023-05-23T02:14:14.353Z,11.98
2023-05-23T02:16:42.613Z,11.70
2023-05-23T02:19:09.819Z,12.60
2023-05-23T02:21:38.057Z,12.15
2023-05-23T02:24:05.277Z,12.85
2023-05-23T02:26:32.733Z,13.75
2023-05-23T02:28:59.916Z,13.35
2023-05-23T02:31:28.010Z,13.65
2023-05-23T02:33:55.574Z,13.55
2023-05-23T02:36:22.976Z,13.98
2023-05-23T02:38:50.633Z,14.48
2023-05-23T02:41:17.925Z,14.40
2023-05-23T02:43:48.283Z,14.32
2023-05-23T02:46:16.927Z,12.90
2023-05-23T02:48:45.420Z,13.10
2023-05-23T02:51:13.772Z,12.65
2023-05-23T02:53:41.324Z,12.20
2023-05-23T02:56:08.762Z,9.80
2023-05-23T02:58:36.956Z,10.30
2023-05-23T03:01:06.424Z,10.60
2023-05-23T03:03:35.354Z,10.65
2023-05-23T03:06:04.987Z,11.10
2023-05-23T03:08:32.243Z,11.98
2023-05-23T03:10:59.553Z,11.85
2023-05-23T03:13:26.758Z,13.15
2023-05-23T03:15:54.369Z,11.70
2023-05-23T03:18:21.487Z,11.93
2023-05-23T03:20:48.576Z,11.88
2023-05-23T03:23:15.803Z,10.80
2023-05-23T03:25:43.697Z,11.25
2023-05-23T03:28:12.268Z,10.65
2023-05-23T03:30:39.378Z,10.27
2023-05-23T03:33:07.519Z,10.23
2023-05-23T03:35:35.318Z,10.18
2023-05-23T03:38:02.712Z,9.93
2023-05-23T03:40:29.760Z,10.80
2023-05-23T03:43:08.585Z,10.07
2023-05-23T03:45:38.696Z,10.52
2023-05-23T03:48:12.486Z,10.30
2023-05-23T03:50:40.994Z,9.93
2023-05-23T03:53:08.517Z,10.80
2023-05-23T03:55:36.385Z,10.50
2023-05-23T03:58:03.805Z,10.35
2023-05-23T04:00:31.042Z,10.10
2023-05-23T04:02:59.759Z,9.75
2023-05-23T04:05:26.994Z,10.02
2023-05-23T04:07:54.246Z,9.65
2023-05-23T04:10:21.414Z,9.63
2023-05-23T04:12:48.670Z,9.40
2023-05-23T04:15:18.154Z,8.82
2023-05-23T04:18:08.158Z,8.85
2023-05-23T04:20:35.714Z,8.93
2023-05-23T04:23:03.077Z,8.43
2023-05-23T04:25:32.412Z,9.05
2023-05-23T04:28:07.131Z,8.60
2023-05-23T04:30:34.685Z,7.75
2023-05-23T04:33:02.052Z,7.78
2023-05-23T04:35:29.670Z,7.07
2023-05-23T04:37:56.923Z,7.50
2023-05-23T04:40:26.066Z,6.90
2023-05-23T04:43:09.341Z,6.70
2023-05-23T04:45:51.615Z,6.30
2023-05-23T04:48:38.636Z,6.72
2023-05-23T04:51:09.147Z,7.28
2023-05-23T04:53:41.304Z,6.40
2023-05-23T04:56:10.037Z,7.25
2023-05-23T04:58:40.764Z,6.72
2023-05-23T05:01:11.672Z,6.78
2023-05-23T05:03:39.287Z,6.47
2023-05-23T05:06:06.904Z,6.32
2023-05-23T05:08:36.321Z,6.60
2023-05-23T05:11:05.238Z,6.07
2023-05-23T05:13:32.899Z,6.07
2023-05-23T05:16:01.025Z,6.15
2023-05-23T05:18:28.731Z,5.88
2023-05-23T05:20:58.509Z,5.63
2023-05-23T05:23:28.887Z,6.50
2023-05-23T05:25:57.114Z,5.88
2023-05-23T05:28:25.017Z,6.15
2023-05-23T05:30:55.732Z,6.07
2023-05-23T05:33:24.905Z,6.75
2023-05-23T05:36:07.991Z,6.50
2023-05-23T05:38:35.196Z,6.72
2023-05-23T05:41:02.490Z,8.60
2023-05-23T05:43:34.495Z,8.45
2023-05-23T05:46:01.708Z,8.38
2023-05-23T05:48:29.444Z,8.98
2023-05-23T05:51:01.308Z,8.77
2023-05-23T05:53:31.325Z,9.43
2023-05-23T05:55:58.781Z,9.00
2023-05-23T05:58:25.995Z,9.30
2023-05-23T06:01:00.672Z,9.15
2023-05-23T06:03:28.198Z,8.52
2023-05-23T06:05:56.160Z,7.88
2023-05-23T06:08:23.398Z,8.30
2023-05-23T06:10:50.855Z,8.20
2023-05-23T06:13:18.209Z,7.97
2023-05-23T06:15:49.721Z,7.53
2023-05-23T06:18:17.996Z,7.78
2023-05-23T06:20:45.513Z,7.82
2023-05-23T06:23:16.209Z,7.57
2023-05-23T06:25:43.480Z,7.15
2023-05-23T06:28:10.550Z,6.40
2023-05-23T06:30:39.156Z,6.30
2023-05-23T06:33:08.555Z,7.10
2023-05-23T06:35:35.943Z,6.78
2023-05-23T06:38:03.217Z,6.68
2023-05-23T06:40:30.449Z,5.90
2023-05-23T06:42:57.596Z,6.55
2023-05-23T06:45:39.009Z,6.53
2023-05-23T06:48:06.616Z,5.57
2023-05-23T06:50:36.277Z,5.85
2023-05-23T06:53:04.321Z,5.00
2023-05-23T06:55:33.899Z,5.32
2023-05-23T06:58:04.121Z,5.03
2023-05-23T07:00:32.011Z,5.00
2023-05-23T07:03:13.121Z,4.50
2023-05-23T07:05:41.673Z,4.63
2023-05-23T07:08:11.356Z,4.30
2023-05-23T07:10:41.964Z,4.43
2023-05-23T07:13:23.283Z,4.63
2023-05-23T07:15:50.618Z,4.20
2023-05-23T07:18:18.892Z,4.30
2023-05-23T07:20:46.017Z,4.47
2023-05-23T07:23:17.451Z,4.75
2023-05-23T07:26:01.322Z,4.65
2023-05-23T07:28:37.662Z,4.75
2023-05-23T07:31:05.126Z,4.60
2023-05-23T07:33:34.591Z,4.03
2023-05-23T07:36:04.470Z,4.78
2023-05-23T07:38:31.673Z,4.57
2023-05-23T07:41:10.963Z,4.50
2023-05-23T07:43:39.692Z,4.82
2023-05-23T07:46:07.285Z,4.65
2023-05-23T07:48:34.555Z,4.18
2023-05-23T07:51:01.983Z,4.40
2023-05-23T07:53:29.602Z,4.43
2023-05-23T07:55:58.076Z,4.57
2023-05-23T07:58:28.658Z,4.50
2023-05-23T08:00:55.876Z,5.05
2023-05-23T08:03:49.088Z,4.45
2023-05-23T08:06:23.188Z,4.93
2023-05-23T08:08:51.133Z,4.45
2023-05-23T08:11:18.218Z,5.30
2023-05-23T08:13:50.073Z,4.38
2023-05-23T08:16:38.025Z,4.40
2023-05-23T08:19:13.388Z,4.22
2023-05-23T08:21:41.331Z,4.35
2023-05-23T08:24:08.878Z,4.10
2023-05-23T08:26:37.658Z,3.85
2023-05-23T08:29:06.878Z,4.43
2023-05-23T08:31:36.630Z,4.18
2023-05-23T08:34:05.162Z,4.53
2023-05-23T08:36:36.550Z,3.90
2023-05-23T08:39:05.821Z,4.28
2023-05-23T08:41:37.226Z,5.10
2023-05-23T08:44:09.706Z,4.63
2023-05-23T08:46:46.920Z,4.55
2023-05-23T08:49:23.631Z,4.28
2023-05-23T08:51:55.706Z,4.50
2023-05-23T08:54:23.052Z,4.13
2023-05-23T08:56:52.290Z,4.13
2023-05-23T08:59:22.032Z,4.93
2023-05-23T09:01:51.500Z,4.47
2023-05-23T09:04:18.964Z,4.55
2023-05-23T09:07:00.307Z,4.70
2023-05-23T09:09:29.979Z,4.75
2023-05-23T09:11:59.814Z,5.60
2023-05-23T09:14:30.404Z,4.90
2023-05-23T09:17:04.633Z,4.70
2023-05-23T09:19:33.374Z,4.88
2023-05-23T09:22:13.558Z,4.40
2023-05-23T09:24:55.516Z,4.45
2023-05-23T09:27:23.702Z,4.30
2023-05-23T09:29:51.149Z,4.32
2023-05-23T09:32:21.296Z,4.38
2023-05-23T09:35:00.606Z,4.38
2023-05-23T09:37:39.283Z,4.43
2023-05-23T09:40:16.457Z,4.60
2023-05-23T09:42:54.105Z,4.80
2023-05-23T09:45:21.215Z,4.18
2023-05-23T09:47:54.510Z,4.20
2023-05-23T09:50:22.781Z,4.20
2023-05-23T09:52:51.289Z,4.57
2023-05-23T09:55:19.914Z,4.65
2023-05-23T09:57:54.591Z,4.25
2023-05-23T10:00:21.801Z,4.07
2023-05-23T10:03:08.376Z,4.00
2023-05-23T10:05:38.911Z,4.65
2023-05-23T10:08:13.837Z,4.13
2023-05-23T10:11:16.584Z,4.10
2023-05-23T10:13:49.833Z,4.50
2023-05-23T10:16:29.227Z,4.32
2023-05-23T10:19:07.880Z,4.18
2023-05-23T10:21:50.529Z,4.47
2023-05-23T10:24:18.820Z,4.32
2023-05-23T10:26:46.548Z,3.58
2023-05-23T10:29:13.583Z,4.20
2023-05-23T10:31:41.392Z,3.88
2023-05-23T10:34:25.772Z,4.00
2023-05-23T10:37:23.125Z,3.80
2023-05-23T10:40:32.897Z,4.15
2023-05-23T10:43:08.259Z,4.10
2023-05-23T10:45:42.967Z,4.13
2023-05-23T10:48:31.306Z,4.32
2023-05-23T10:51:10.986Z,3.40
2023-05-23T10:53:42.291Z,4.13
2023-05-23T10:56:11.637Z,3.90
2023-05-23T10:58:41.622Z,4.00
2023-05-23T11:01:13.875Z,3.65
2023-05-23T11:03:47.446Z,3.38
2023-05-23T11:06:45.119Z,3.42
2023-05-23T11:09:19.438Z,3.83
2023-05-23T11:11:59.560Z,2.88
2023-05-23T11:14:33.731Z,3.55
2023-05-23T11:17:13.119Z,3.90
2023-05-23T11:19:40.660Z,3.10
2023-05-23T11:22:10.888Z,3.60
2023-05-23T11:24:55.518Z,3.20
2023-05-23T11:27:38.279Z,3.47
2023-05-23T11:30:13.630Z,3.50
2023-05-23T11:32:42.568Z,3.42
2023-05-23T11:35:12.788Z,3.55
2023-05-23T11:37:40.409Z,3.90
2023-05-23T11:40:47.232Z,3.30
2023-05-23T11:43:16.828Z,3.38
2023-05-23T11:45:46.714Z,3.67
2023-05-23T11:48:17.052Z,3.30
2023-05-23T11:50:51.852Z,3.25
2023-05-23T11:53:21.957Z,3.72
2023-05-23T11:55:55.218Z,4.72
2023-05-23T11:58:26.796Z,4.07
2023-05-23T12:01:09.346Z,3.80
2023-05-23T12:03:52.247Z,4.15
2023-05-23T12:06:20.131Z,3.72
2023-05-23T12:08:51.713Z,3.58
2023-05-23T12:11:19.034Z,3.42
2023-05-23T12:13:46.198Z,2.90
2023-05-23T12:16:16.290Z,3.00
2023-05-23T12:18:43.774Z,3.50
2023-05-23T12:21:11.590Z,3.00
2023-05-23T12:23:40.472Z,3.63
2023-05-23T12:26:08.151Z,3.35
2023-05-23T12:28:42.316Z,3.70
2023-05-23T12:31:10.767Z,3.83
2023-05-23T12:33:45.959Z,3.33
2023-05-23T12:36:14.122Z,3.30
2023-05-23T12:38:45.526Z,3.25
2023-05-23T12:41:17.258Z,3.85
2023-05-23T12:43:55.878Z,3.20
2023-05-23T12:46:25.498Z,3.25
2023-05-23T12:48:53.909Z,3.08
2023-05-23T12:51:22.061Z,3.25
2023-05-23T12:53:49.138Z,3.22
2023-05-23T12:56:16.344Z,3.38
2023-05-23T12:58:43.886Z,2.65
2023-05-23T13:01:11.453Z,3.00
2023-05-23T13:03:38.764Z,2.67
2023-05-23T13:06:07.215Z,2.97
2023-05-23T13:08:34.341Z,2.95
2023-05-23T13:11:01.539Z,3.45
2023-05-23T13:13:28.921Z,3.17
2023-05-23T13:15:59.230Z,3.60
2023-05-23T13:18:26.459Z,3.53
2023-05-23T13:20:53.648Z,3.20
2023-05-23T13:23:20.861Z,3.90
2023-05-23T13:25:50.483Z,3.35
2023-05-23T13:28:18.194Z,3.10
2023-05-23T13:30:47.345Z,3.40
2023-05-23T13:33:15.026Z,3.42
2023-05-23T13:35:42.820Z,2.63
2023-05-23T13:38:10.227Z,2.40
2023-05-23T13:40:37.320Z,2.53
2023-05-23T13:43:04.489Z,2.67
2023-05-23T13:45:31.601Z,3.22
2023-05-23T13:47:58.733Z,3.25
2023-05-23T13:50:26.048Z,3.28
2023-05-23T13:52:53.138Z,3.00
2023-05-23T13:55:20.271Z,3.13
2023-05-23T13:57:47.576Z,2.90
2023-05-23T14:00:16.219Z,2.92
2023-05-23T14:02:43.350Z,2.83
2023-05-23T14:05:10.418Z,2.50
2023-05-23T14:07:38.323Z,2.83
2023-05-23T14:10:07.189Z,2.90
2023-05-23T14:12:34.231Z,3.13
2023-05-23T14:15:01.641Z,2.83
2023-05-23T14:17:28.752Z,2.90
2023-05-23T14:19:56.092Z,3.03
2023-05-23T14:22:23.149Z,3.08
2023-05-23T14:24:50.308Z,2.83
2023-05-23T14:27:18.499Z,2.70
2023-05-23T14:29:46.868Z,2.50
2023-05-23T14:32:14.039Z,3.00
2023-05-23T14:34:41.604Z,2.85
2023-05-23T14:37:08.678Z,2.70
2023-05-23T14:39:36.116Z,2.70
2023-05-23T14:42:03.798Z,2.78
2023-05-23T14:44:31.013Z,2.63
2023-05-23T14:46:58.220Z,2.47
2023-05-23T14:49:25.367Z,3.15
2023-05-23T14:51:52.490Z,3.10
2023-05-23T14:54:19.734Z,3.22
2023-05-23T14:56:47.005Z,2.90
2023-05-23T14:59:14.234Z,2.78
2023-05-23T15:01:41.688Z,3.15
2023-05-23T15:04:10.061Z,3.05
2023-05-23T15:06:39.364Z,2.97
2023-05-23T15:09:07.596Z,2.70
2023-05-23T15:11:38.854Z,2.78
2023-05-23T15:14:06.502Z,2.78
2023-05-23T15:16:36.582Z,2.50
2023-05-23T15:19:05.738Z,2.72
2023-05-23T15:21:32.900Z,2.60
2023-05-23T15:24:00.096Z,2.97
2023-05-23T15:26:27.409Z,2.78
2023-05-23T15:28:54.659Z,3.40
2023-05-23T15:31:21.868Z,3.35
2023-05-23T15:33:48.964Z,3.30
2023-05-23T15:36:16.103Z,3.33
2023-05-23T15:38:43.857Z,2.97
2023-05-23T15:41:12.303Z,3.30
2023-05-23T15:43:39.475Z,3.50
2023-05-23T15:46:06.625Z,3.47
2023-05-23T15:48:33.971Z,3.25
2023-05-23T15:51:01.068Z,3.13
2023-05-23T15:53:29.372Z,2.83
2023-05-23T15:55:57.698Z,2.72
2023-05-23T15:58:24.742Z,3.17
2023-05-23T16:00:51.913Z,2.92
2023-05-23T16:03:18.999Z,2.85
2023-05-23T16:05:46.478Z,3.30
2023-05-23T16:08:13.565Z,2.90
2023-05-23T16:10:40.645Z,2.85
2023-05-23T16:13:09.002Z,2.83
2023-05-23T16:15:36.346Z,2.95
2023-05-23T16:18:04.050Z,2.90
2023-05-23T16:20:31.367Z,2.70
2023-05-23T16:22:58.365Z,2.83
2023-05-23T16:25:25.451Z,2.80
2023-05-23T16:27:52.541Z,3.05
2023-05-23T16:30:20.211Z,2.70
2023-05-23T16:32:47.262Z,3.08
2023-05-23T16:35:14.417Z,3.00
2023-05-23T16:37:41.654Z,2.80
2023-05-23T16:40:09.473Z,2.80
2023-05-23T16:42:37.389Z,2.95
2023-05-23T16:45:05.636Z,3.15
2023-05-23T16:47:32.697Z,2.78
2023-05-23T16:49:59.881Z,3.15
2023-05-23T16:52:26.979Z,2.88
2023-05-23T16:54:55.824Z,3.20
2023-05-23T16:57:22.945Z,3.03
2023-05-23T16:59:49.953Z,3.30
2023-05-23T17:02:17.075Z,2.92
2023-05-23T17:04:44.295Z,2.42
2023-05-23T17:07:11.501Z,2.75
2023-05-23T17:09:39.215Z,2.92
2023-05-23T17:12:06.803Z,2.83
2023-05-23T17:14:34.270Z,2.97
2023-05-23T17:17:03.475Z,3.10
2023-05-23T17:19:30.737Z,3.15
2023-05-23T17:21:59.101Z,2.70
2023-05-23T17:24:26.345Z,3.10
2023-05-23T17:26:53.631Z,3.55
2023-05-23T17:29:21.121Z,3.30
2023-05-23T17:31:48.181Z,3.13
2023-05-23T17:34:15.970Z,3.00
2023-05-23T17:36:43.084Z,3.03
2023-05-23T17:39:10.125Z,3.42
2023-05-23T17:41:37.480Z,2.65
2023-05-23T17:44:04.638Z,3.15
2023-05-23T17:46:31.901Z,2.67
2023-05-23T17:48:59.011Z,2.50
2023-05-23T17:51:26.594Z,2.90
2023-05-23T17:53:54.099Z,2.58
2023-05-23T17:56:24.934Z,3.33
2023-05-23T17:58:52.681Z,2.70
2023-05-23T18:01:19.793Z,2.95
2023-05-23T18:03:48.973Z,2.70
2023-05-23T18:06:16.522Z,3.65
2023-05-23T18:08:43.647Z,3.35
2023-05-23T18:11:10.704Z,3.47
2023-05-23T18:13:37.743Z,3.15
2023-05-23T18:16:05.006Z,3.10
2023-05-23T18:18:32.507Z,3.92
2023-05-23T18:20:59.680Z,3.22
2023-05-23T18:23:26.829Z,3.42
2023-05-23T18:25:54.388Z,3.10
2023-05-23T18:28:21.803Z,3.30
2023-05-23T18:30:49.002Z,3.38
2023-05-23T18:33:16.463Z,3.33
2023-05-23T18:35:43.895Z,3.55
2023-05-23T18:38:11.561Z,3.50
2023-05-23T18:40:38.846Z,4.25
2023-05-23T18:43:06.127Z,3.50
2023-05-23T18:45:33.238Z,3.47
2023-05-23T18:48:00.463Z,3.53
2023-05-23T18:50:27.898Z,3.40
2023-05-23T18:52:55.045Z,3.40
2023-05-23T18:55:22.191Z,3.72
2023-05-23T18:57:49.251Z,3.50
2023-05-23T19:00:16.667Z,3.50
2023-05-23T19:02:45.237Z,3.78
2023-05-23T19:05:12.869Z,3.58
2023-05-23T19:07:40.558Z,4.03
2023-05-23T19:10:08.345Z,4.25
2023-05-23T19:12:35.693Z,3.95
2023-05-23T19:15:03.643Z,3.80
2023-05-23T19:17:31.090Z,3.58
2023-05-23T19:20:00.685Z,3.80
2023-05-23T19:22:29.666Z,3.80
2023-05-23T19:25:04.737Z,4.05
2023-05-23T19:27:32.384Z,3.83
2023-05-23T19:29:59.441Z,3.83
2023-05-23T19:32:26.589Z,3.63
2023-05-23T19:34:54.277Z,4.15
2023-05-23T19:37:22.422Z,4.28
2023-05-23T19:39:49.587Z,4.28
2023-05-23T19:42:17.024Z,4.07
2023-05-23T19:44:44.740Z,4.20
2023-05-23T19:47:12.207Z,4.47
2023-05-23T19:49:39.348Z,4.05
2023-05-23T19:52:06.613Z,4.57
2023-05-23T19:54:33.911Z,4.40
2023-05-23T19:57:01.143Z,4.35
2023-05-23T19:59:28.178Z,4.50
2023-05-23T20:01:55.486Z,4.40
2023-05-23T20:04:24.980Z,4.57
2023-05-23T20:06:52.828Z,5.07
2023-05-23T20:09:20.167Z,4.80
2023-05-23T20:11:47.870Z,4.20
2023-05-23T20:14:15.262Z,5.20
2023-05-23T20:16:42.537Z,4.50
2023-05-23T20:19:10.047Z,4.43
2023-05-23T20:21:37.363Z,5.28
2023-05-23T20:24:04.716Z,4.60
2023-05-23T20:26:31.817Z,4.55
2023-05-23T20:28:59.919Z,4.68
2023-05-23T20:31:27.097Z,5.13
2023-05-23T20:33:54.226Z,4.72
2023-05-23T20:36:21.460Z,4.80
2023-05-23T20:38:48.576Z,4.75
2023-05-23T20:41:15.680Z,5.15
2023-05-23T20:43:44.585Z,5.22
2023-05-23T20:46:13.726Z,4.78
2023-05-23T20:48:41.671Z,4.68
2023-05-23T20:51:08.877Z,5.07
2023-05-23T20:53:36.123Z,4.75
2023-05-23T20:56:03.728Z,4.53
2023-05-23T20:58:30.871Z,4.90
2023-05-23T21:00:59.338Z,4.75
2023-05-23T21:03:26.510Z,5.13
2023-05-23T21:05:53.689Z,5.72
2023-05-23T21:08:21.784Z,5.90
2023-05-23T21:10:52.394Z,4.88
2023-05-23T21:13:21.416Z,5.65
2023-05-23T21:15:48.652Z,5.95
2023-05-23T21:18:15.802Z,5.80
2023-05-23T21:20:43.333Z,6.13
2023-05-23T21:23:10.627Z,5.75
2023-05-23T21:25:38.038Z,5.30
2023-05-23T21:28:05.102Z,5.55
2023-05-23T21:30:32.433Z,5.97
2023-05-23T21:32:59.847Z,6.07
2023-05-23T21:35:27.092Z,6.00
2023-05-23T21:37:54.365Z,5.78
2023-05-23T21:40:21.511Z,6.07
2023-05-23T21:42:48.631Z,6.20
2023-05-23T21:45:16.007Z,5.50
2023-05-23T21:47:43.138Z,6.18
2023-05-23T21:50:11.002Z,6.03
2023-05-23T21:52:38.153Z,6.28
2023-05-23T21:55:05.548Z,5.78
2023-05-23T21:57:32.606Z,6.25
2023-05-23T21:59:59.655Z,6.38
2023-05-23T22:02:26.778Z,5.88
2023-05-23T22:04:54.033Z,5.80
2023-05-23T22:07:25.236Z,6.15
2023-05-23T22:09:53.430Z,6.13
2023-05-23T22:12:20.591Z,6.03
2023-05-23T22:14:47.799Z,5.85
2023-05-23T22:17:14.964Z,6.35
2023-05-23T22:19:42.160Z,5.97
2023-05-23T22:22:12.005Z,5.78
2023-05-23T22:24:39.195Z,5.90
2023-05-23T22:27:06.430Z,6.40
2023-05-23T22:29:33.628Z,6.60
2023-05-23T22:32:00.879Z,6.30
2023-05-23T22:34:28.156Z,6.47
2023-05-23T22:36:57.018Z,6.63
2023-05-23T22:39:26.206Z,6.47
2023-05-23T22:41:53.628Z,6.68
2023-05-23T22:44:21.045Z,6.90
2023-05-23T22:46:48.197Z,6.72
2023-05-23T22:49:15.487Z,6.95
2023-05-23T22:51:44.662Z,6.70
2023-05-23T22:54:11.887Z,7.13
2023-05-23T22:56:39.064Z,6.85
2023-05-23T22:59:06.362Z,7.03
2023-05-23T23:01:33.834Z,7.55
2023-05-23T23:04:00.953Z,6.95
2023-05-23T23:06:29.337Z,7.05
2023-05-23T23:08:56.606Z,7.32
2023-05-23T23:11:23.633Z,7.07
2023-05-23T23:13:50.871Z,7.07
2023-05-23T23:16:19.385Z,6.75
2023-05-23T23:18:47.207Z,7.20
2023-05-23T23:21:14.325Z,7.53
2023-05-23T23:23:42.440Z,7.70
2023-05-23T23:26:09.613Z,6.75
2023-05-23T23:28:36.730Z,7.35
2023-05-23T23:31:03.882Z,7.47
2023-05-23T23:33:31.092Z,7.38
2023-05-23T23:35:58.339Z,7.10
2023-05-23T23:38:25.600Z,7.80
2023-05-23T23:40:52.687Z,7.30
2023-05-23T23:43:19.725Z,7.32
2023-05-23T23:45:47.062Z,7.20
2023-05-23T23:48:14.960Z,8.63
2023-05-23T23:50:42.491Z,7.65
2023-05-23T23:53:10.126Z,7.60
2023-05-23T23:55:37.121Z,7.55
2023-05-23T23:58:06.409Z,7.50
